Time;durP1;ratioP1;P1;durP2;ratioP2;P2;SDS_P1;SDS_P2;PMS_P1;PMS_P2;Temp;Humidity;BMP_temperature;BMP_pressure;BME280_temperature;BME280_humidity;BME280_pressure;Samples;Min_cycle;Max_cycle;Signal;HPM_P1;HPM_P2
2022/11/11 00:00:56;;;;;;;9.90;4.23;;;10.40;1.00;;;;;;4949124;28;21281;-86
2022/11/11 00:03:45;;;;;;;12.90;4.00;;;10.40;1.00;;;;;;4925082;28;20430;-85
2022/11/11 00:06:29;;;;;;;11.83;5.43;;;10.40;1.00;;;;;;4941155;28;21108;-85
2022/11/11 00:08:55;;;;;;;14.17;5.27;;;10.30;1.00;;;;;;4952502;28;20998;-85
2022/11/11 00:11:28;;;;;;;10.57;3.93;;;10.30;1.00;;;;;;4980530;28;20543;-86
2022/11/11 00:13:56;;;;;;;13.03;4.50;;;10.30;1.00;;;;;;4950224;28;21209;-86
2022/11/11 00:25:04;;;;;;;12.33;4.77;;;10.30;1.00;;;;;;4988926;28;20478;-85
2022/11/11 00:27:31;;;;;;;13.03;4.90;;;10.20;1.00;;;;;;4969759;28;20477;-83
2022/11/11 00:30:03;;;;;;;13.20;3.93;;;10.10;1.00;;;;;;4913698;28;20459;-84
2022/11/11 00:32:35;;;;;;;10.90;4.43;;;10.10;1.00;;;;;;4934983;28;20474;-85
2022/11/11 00:37:53;;;;;;;8.80;3.80;;;10.10;1.00;;;;;;4971994;28;20586;-84
2022/11/11 00:40:20;;;;;;;11.50;5.60;;;10.10;1.00;;;;;;4967216;28;20970;-86
2022/11/11 00:42:48;;;;;;;10.60;3.90;;;10.00;1.00;;;;;;4958872;28;20513;-85
2022/11/11 00:45:15;;;;;;;11.60;4.53;;;10.00;1.00;;;;;;4976514;28;20495;-86
2022/11/11 00:53:18;;;;;;;13.53;4.73;;;9.90;1.00;;;;;;4973435;28;20487;-86
2022/11/11 00:55:47;;;;;;;11.23;4.60;;;9.90;1.00;;;;;;4983681;28;20466;-86
2022/11/11 00:58:16;;;;;;;12.73;5.07;;;9.90;1.00;;;;;;4964979;28;20443;-85
2022/11/11 01:00:49;;;;;;;14.67;6.37;;;9.90;1.00;;;;;;4948311;28;20448;-84
2022/11/11 01:03:17;;;;;;;14.10;5.30;;;9.90;1.00;;;;;;4949243;28;20483;-85
2022/11/11 01:05:59;;;;;;;12.37;4.67;;;9.80;1.00;;;;;;4949325;28;20427;-85
2022/11/11 01:08:29;;;;;;;14.07;5.20;;;9.80;1.00;;;;;;4978308;28;20481;-86
2022/11/11 01:10:56;;;;;;;12.80;4.90;;;9.80;1.00;;;;;;4959773;28;20482;-85
2022/11/11 01:13:28;;;;;;;10.23;5.23;;;9.80;1.00;;;;;;4955062;28;20462;-85
2022/11/11 01:16:04;;;;;;;8.70;4.20;;;9.80;1.00;;;;;;4941317;28;20499;-85
2022/11/11 01:18:37;;;;;;;10.63;5.00;;;9.80;1.00;;;;;;4923689;28;20462;-84
2022/11/11 01:21:08;;;;;;;16.87;5.53;;;9.70;1.00;;;;;;4911801;28;20512;-85
2022/11/11 01:23:49;;;;;;;;;;;;;;;;;;;;;
2022/11/11 01:26:24;;;;;;;11.27;4.83;;;9.70;1.00;;;;;;4911643;28;50300;-86
2022/11/11 01:28:59;;;;;;;12.70;5.20;;;9.70;1.00;;;;;;4955710;28;21184;-85
2022/11/11 01:31:27;;;;;;;12.55;6.00;;;9.70;1.00;;;;;;4968482;28;20488;-85
2022/11/11 01:34:05;;;;;;;13.47;4.97;;;9.80;1.00;;;;;;4927300;28;20280;-85
2022/11/11 01:36:33;;;;;;;12.07;5.47;;;9.80;1.00;;;;;;4942794;28;20418;-85
2022/11/11 01:39:15;;;;;;;13.70;5.13;;;9.80;1.00;;;;;;4975763;28;20569;-84
2022/11/11 01:41:48;;;;;;;13.87;4.97;;;9.80;1.00;;;;;;4948640;28;20458;-84
2022/11/11 01:44:45;;;;;;;12.70;4.97;;;9.90;1.00;;;;;;4933964;28;20466;-85
2022/11/11 01:49:17;;;;;;;11.87;4.80;;;9.80;1.00;;;;;;4928834;28;21262;-84
2022/11/11 01:50:18;;;;;;;13.47;5.20;;;9.80;1.00;;;;;;4895523;28;20451;-84
2022/11/11 01:52:48;;;;;;;9.50;4.57;;;9.80;1.00;;;;;;4913270;28;20451;-86
2022/11/11 01:55:25;;;;;;;11.93;4.90;;;9.90;1.00;;;;;;4935699;28;21685;-86
2022/11/11 01:58:17;;;;;;;11.97;5.20;;;9.90;1.00;;;;;;4930052;28;20883;-86
2022/11/11 02:00:47;;;;;;;13.10;5.00;;;9.90;1.00;;;;;;4911349;28;20550;-84
2022/11/11 02:03:17;;;;;;;10.50;5.60;;;9.90;1.00;;;;;;4942374;28;20469;-83
2022/11/11 02:05:45;;;;;;;10.60;4.97;;;9.90;1.00;;;;;;4949318;28;21005;-86
2022/11/11 02:08:36;;;;;;;12.40;4.50;;;9.90;1.00;;;;;;4962051;28;20462;-85
2022/11/11 02:14:34;;;;;;;12.77;4.87;;;9.90;1.00;;;;;;4927830;28;20506;-85
2022/11/11 02:16:56;;;;;;;12.60;4.77;;;9.90;1.00;;;;;;4958149;28;20483;-85
2022/11/11 02:19:37;;;;;;;9.90;4.70;;;9.90;1.00;;;;;;4973508;28;20422;-86
2022/11/11 02:22:22;;;;;;;10.73;5.23;;;9.90;1.00;;;;;;4928161;28;20460;-86
2022/11/11 02:24:54;;;;;;;13.13;4.90;;;9.90;1.00;;;;;;4925693;28;20485;-85
2022/11/11 02:27:26;;;;;;;11.70;5.90;;;9.90;1.00;;;;;;4949795;28;20470;-85
2022/11/11 02:29:59;;;;;;;10.20;4.57;;;9.90;1.00;;;;;;4932759;28;20423;-85
2022/11/11 02:32:26;;;;;;;11.30;5.10;;;9.90;1.00;;;;;;4911864;28;21433;-86
2022/11/11 02:34:55;;;;;;;12.20;4.70;;;9.90;1.00;;;;;;4925740;28;20525;-86
2022/11/11 02:37:27;;;;;;;14.80;5.30;;;9.90;1.00;;;;;;4974474;28;20430;-86
2022/11/11 02:40:06;;;;;;;10.80;4.57;;;9.90;1.00;;;;;;4942012;28;20889;-86
2022/11/11 02:42:38;;;;;;;11.10;5.50;;;10.00;1.00;;;;;;4936771;28;20479;-85
2022/11/11 02:45:09;;;;;;;13.27;4.80;;;10.00;1.00;;;;;;4923025;28;21137;-85
2022/11/11 02:47:36;;;;;;;13.63;5.10;;;9.90;1.00;;;;;;4951918;28;20469;-85
2022/11/11 02:50:27;;;;;;;13.50;4.90;;;9.90;1.00;;;;;;4944290;28;20434;-84
2022/11/11 02:52:57;;;;;;;13.40;5.17;;;9.90;1.00;;;;;;4912792;28;20537;-85
2022/11/11 02:55:39;;;;;;;14.00;5.07;;;9.90;1.00;;;;;;4935326;28;20604;-84
2022/11/11 02:58:09;;;;;;;14.50;5.20;;;9.80;1.00;;;;;;4907684;28;21393;-86
2022/11/11 03:00:36;;;;;;;9.93;4.60;;;9.80;1.00;;;;;;4944767;28;20546;-85
2022/11/11 03:06:08;;;;;;;12.90;5.10;;;9.90;1.00;;;;;;4900381;28;20512;-86
2022/11/11 03:08:38;;;;;;;9.30;4.10;;;9.90;1.00;;;;;;4922664;28;20470;-85
2022/11/11 03:11:26;;;;;;;13.73;4.63;;;9.90;1.00;;;;;;4908710;28;20780;-85
2022/11/11 03:14:07;;;;;;;11.33;4.50;;;9.90;1.00;;;;;;4902717;28;20567;-85
2022/11/11 03:22:39;;;;;;;15.43;4.73;;;9.90;1.00;;;;;;4937429;28;20517;-86
2022/11/11 03:28:07;;;;;;;12.20;4.93;;;9.90;1.00;;;;;;4956822;28;20486;-86
2022/11/11 03:30:37;;;;;;;9.87;4.30;;;9.80;1.00;;;;;;4936570;28;20467;-85
2022/11/11 03:33:27;;;;;;;11.00;4.23;;;9.80;1.00;;;;;;4933168;28;20463;-85
2022/11/11 03:35:56;;;;;;;9.43;4.50;;;9.90;1.00;;;;;;4926868;28;20473;-84
2022/11/11 03:38:28;;;;;;;15.97;4.60;;;9.90;1.00;;;;;;4943318;28;20437;-86
2022/11/11 03:40:58;;;;;;;11.00;4.37;;;9.90;1.00;;;;;;4910498;28;20902;-85
2022/11/11 03:43:30;;;;;;;11.93;4.30;;;9.90;1.00;;;;;;4922624;28;20476;-86
2022/11/11 03:45:59;;;;;;;10.40;5.00;;;9.80;1.00;;;;;;4947844;28;20427;-84
2022/11/11 03:48:28;;;;;;;9.73;4.70;;;9.80;1.00;;;;;;4978189;28;20466;-86
2022/11/11 03:50:56;;;;;;;10.50;4.30;;;9.80;1.00;;;;;;4975224;28;20473;-85
2022/11/11 03:53:28;;;;;;;13.13;4.67;;;9.70;1.00;;;;;;4969355;28;20432;-86
2022/11/11 03:55:55;;;;;;;10.57;4.63;;;9.70;1.00;;;;;;4935649;28;20640;-85
2022/11/11 03:58:43;;;;;;;13.55;4.88;;;9.70;1.00;;;;;;4939149;28;20445;-86
2022/11/11 04:12:30;;;;;;;11.70;5.17;;;9.60;1.00;;;;;;4985257;28;20449;-86
2022/11/11 04:17:49;;;;;;;12.85;5.15;;;9.60;1.00;;;;;;4977706;28;20458;-85
2022/11/11 04:23:08;;;;;;;14.40;5.20;;;9.50;1.00;;;;;;4951415;28;20465;-85
2022/11/11 04:25:49;;;;;;;10.77;5.10;;;9.50;1.00;;;;;;4957410;28;20478;-85
2022/11/11 04:31:08;;;;;;;11.83;4.77;;;9.50;1.00;;;;;;4962399;28;20458;-86
2022/11/11 04:33:36;;;;;;;13.37;5.70;;;9.50;1.00;;;;;;4967369;28;20515;-85
2022/11/11 04:36:19;;;;;;;;;;;;;;;;;;;;;
2022/11/11 04:41:37;;;;;;;14.37;5.30;;;9.60;1.00;;;;;;4948044;28;20651;-86
2022/11/11 04:46:57;;;;;;;12.90;5.57;;;9.60;1.00;;;;;;4964971;28;20437;-86
2022/11/11 04:49:29;;;;;;;12.10;5.70;;;9.60;1.00;;;;;;4970018;28;20608;-86
2022/11/11 04:57:26;;;;;;;16.10;5.70;;;9.60;1.00;;;;;;4965164;28;20431;-85
2022/11/11 04:59:59;;;;;;;13.18;5.70;;;9.60;1.00;;;;;;4924442;28;20550;-86
2022/11/11 05:05:19;;;;;;;12.33;5.70;;;9.60;1.00;;;;;;4896285;28;20558;-85
2022/11/11 05:10:46;;;;;;;12.73;5.17;;;9.60;1.00;;;;;;4925247;28;20491;-85
2022/11/11 05:21:48;;;;;;;14.90;5.70;;;9.70;1.00;;;;;;4937796;28;20475;-83
2022/11/11 05:27:06;;;;;;;14.80;5.27;;;9.80;1.00;;;;;;4934086;28;20377;-81
2022/11/11 05:29:48;;;;;;;13.10;4.80;;;9.70;1.00;;;;;;4914046;28;20929;-85
2022/11/11 05:32:25;;;;;;;11.37;5.13;;;9.80;1.00;;;;;;4942734;28;20516;-85
2022/11/11 05:34:59;;;;;;;14.00;5.63;;;9.80;1.00;;;;;;4944013;28;20443;-87
2022/11/11 05:37:39;;;;;;;12.80;5.30;;;9.80;1.00;;;;;;4952620;28;20513;-86
2022/11/11 05:40:12;;;;;;;14.03;5.83;;;9.80;1.00;;;;;;4926970;28;20463;-85
2022/11/11 05:42:56;;;;;;;14.47;5.90;;;9.90;1.00;;;;;;4954042;28;20445;-86
2022/11/11 05:45:28;;;;;;;10.83;4.83;;;9.90;1.00;;;;;;4929023;28;20567;-82
2022/11/11 05:48:01;;;;;;;11.13;4.00;;;9.80;1.00;;;;;;4934623;28;20458;-83
2022/11/11 05:50:40;;;;;;;14.60;6.23;;;9.80;1.00;;;;;;4940982;28;20518;-85
2022/11/11 05:53:07;;;;;;;14.60;5.37;;;9.80;1.00;;;;;;4904017;28;21372;-86
2022/11/11 05:55:37;;;;;;;10.80;4.10;;;9.80;1.00;;;;;;4954814;28;20486;-83
2022/11/11 05:58:07;;;;;;;13.23;4.57;;;9.90;1.00;;;;;;4960173;28;20485;-86
2022/11/11 06:00:37;;;;;;;11.20;5.00;;;10.00;1.00;;;;;;4969856;28;20587;-83
2022/11/11 06:03:09;;;;;;;10.50;5.03;;;10.00;1.00;;;;;;4917136;28;21354;-85
2022/11/11 06:05:38;;;;;;;12.00;4.97;;;10.00;1.00;;;;;;4970314;28;21250;-84
2022/11/11 06:08:07;;;;;;;11.67;5.20;;;9.90;1.00;;;;;;4979104;28;20501;-84
2022/11/11 06:10:37;;;;;;;10.27;4.80;;;9.90;1.00;;;;;;4938664;28;20606;-85
2022/11/11 06:13:09;;;;;;;17.60;7.20;;;9.90;1.00;;;;;;4920408;28;20634;-87
2022/11/11 06:15:49;;;;;;;12.40;5.87;;;9.90;1.00;;;;;;4942292;28;20512;-86
2022/11/11 06:18:19;;;;;;;30.87;15.13;;;10.00;1.00;;;;;;4928221;28;20443;-87
2022/11/11 06:21:17;;;;;;;17.00;6.07;;;10.00;1.00;;;;;;4928893;28;20481;-87
2022/11/11 06:23:48;;;;;;;14.13;6.13;;;10.00;1.00;;;;;;4883822;29;21452;-88
2022/11/11 06:31:37;;;;;;;12.03;4.73;;;10.00;1.00;;;;;;3130229;26;21079;-84
2022/11/11 06:34:17;;;;;;;11.20;4.93;;;10.00;1.00;;;;;;4974572;28;20538;-85
2022/11/11 06:37:10;;;;;;;10.03;4.50;;;9.90;1.00;;;;;;4940771;28;20523;-86
2022/11/11 06:39:39;;;;;;;13.40;5.03;;;9.90;1.00;;;;;;4944851;28;20446;-84
2022/11/11 06:42:09;;;;;;;11.80;5.13;;;9.90;1.00;;;;;;4928941;28;20499;-84
2022/11/11 06:44:50;;;;;;;12.70;5.40;;;10.00;1.00;;;;;;4982713;28;20489;-81
2022/11/11 06:47:19;;;;;;;11.87;5.00;;;10.00;1.00;;;;;;4916935;28;20463;-81
2022/11/11 06:49:49;;;;;;;14.60;5.73;;;10.00;1.00;;;;;;4965267;28;20461;-83
2022/11/11 06:52:27;;;;;;;10.73;5.30;;;9.90;1.00;;;;;;4987842;28;20595;-83
2022/11/11 06:55:07;;;;;;;14.00;6.27;;;9.90;1.00;;;;;;4952864;28;20890;-82
2022/11/11 06:57:36;;;;;;;13.90;4.60;;;10.00;1.00;;;;;;4956705;28;20483;-85
2022/11/11 07:00:04;;;;;;;11.20;4.73;;;10.00;1.00;;;;;;4963695;28;20470;-84
2022/11/11 07:02:33;;;;;;;11.87;5.37;;;10.00;1.00;;;;;;5008141;28;20545;-83
2022/11/11 07:05:01;;;;;;;13.00;6.00;;;9.90;1.00;;;;;;4979903;28;20493;-83
2022/11/11 07:07:28;;;;;;;12.37;5.90;;;10.00;1.00;;;;;;4973854;28;20966;-80
2022/11/11 07:09:58;;;;;;;14.30;5.87;;;10.00;1.00;;;;;;4978342;28;20486;-83
2022/11/11 07:12:30;;;;;;;12.00;6.27;;;10.00;1.00;;;;;;4994725;28;20422;-81
2022/11/11 07:14:57;;;;;;;12.20;5.17;;;10.00;1.00;;;;;;4986855;28;20489;-82
2022/11/11 07:17:25;;;;;;;15.70;5.37;;;10.00;1.00;;;;;;4996226;28;20639;-82
2022/11/11 07:19:57;;;;;;;14.77;5.97;;;10.00;1.00;;;;;;5008744;28;20457;-82
2022/11/11 07:22:26;;;;;;;14.37;5.97;;;10.00;1.00;;;;;;4966454;28;20466;-82
2022/11/11 07:28:09;;;;;;;14.00;6.67;;;10.00;1.00;;;;;;4920874;28;20421;-82
2022/11/11 07:30:40;;;;;;;13.50;5.90;;;9.90;1.00;;;;;;4965295;28;20504;-84
2022/11/11 07:33:10;;;;;;;13.90;5.75;;;9.90;1.00;;;;;;4976742;28;20463;-85
2022/11/11 07:35:41;;;;;;;14.83;5.60;;;9.80;1.00;;;;;;4982349;28;20298;-82
2022/11/11 07:40:46;;;;;;;14.60;6.50;;;9.80;1.00;;;;;;5145055;23;20243;-81
2022/11/11 07:43:28;;;;;;;12.50;7.00;;;9.80;1.00;;;;;;4976674;28;21294;-82
2022/11/11 07:45:57;;;;;;;12.47;5.80;;;9.80;1.00;;;;;;4945504;28;20464;-83
2022/11/11 07:48:30;;;;;;;11.52;5.30;;;9.80;1.00;;;;;;4987902;28;20472;-83
2022/11/11 07:50:57;;;;;;;14.40;6.57;;;9.90;1.00;;;;;;5004584;28;20264;-83
2022/11/11 07:53:27;;;;;;;9.80;5.10;;;9.90;1.00;;;;;;5031095;28;21205;-84
2022/11/11 07:55:57;;;;;;;15.00;6.00;;;9.90;1.00;;;;;;5002256;28;20502;-84
2022/11/11 07:58:27;;;;;;;12.03;5.93;;;9.90;1.00;;;;;;5016369;28;20461;-84
2022/11/11 08:01:01;;;;;;;11.70;5.70;;;10.00;1.00;;;;;;5002979;28;20529;-84
2022/11/11 08:03:28;;;;;;;12.43;6.17;;;10.20;1.00;;;;;;4980147;28;21183;-82
2022/11/11 08:05:58;;;;;;;13.23;6.30;;;10.20;1.00;;;;;;5016499;28;20487;-82
2022/11/11 08:08:28;;;;;;;15.93;6.00;;;10.30;1.00;;;;;;5013412;28;20432;-83
2022/11/11 08:11:06;;;;;;;13.83;5.70;;;10.40;1.00;;;;;;5021480;28;20456;-82
2022/11/11 08:13:39;;;;;;;15.33;6.93;;;10.40;1.00;;;;;;5007528;28;20416;-83
2022/11/11 08:16:07;;;;;;;13.47;5.37;;;10.40;1.00;;;;;;5025024;28;21370;-84
2022/11/11 08:18:39;;;;;;;17.90;7.23;;;10.50;1.00;;;;;;5020506;28;20498;-82
2022/11/11 08:21:08;;;;;;;11.93;6.40;;;10.50;1.00;;;;;;4984742;28;21295;-84
2022/11/11 08:23:38;;;;;;;12.37;6.13;;;10.50;1.00;;;;;;4961172;28;20437;-82
2022/11/11 08:26:18;;;;;;;17.23;7.03;;;10.50;1.00;;;;;;4938565;28;20446;-83
2022/11/11 08:28:58;;;;;;;11.80;6.10;;;10.70;1.00;;;;;;4970156;28;20434;-83
2022/11/11 08:31:29;;;;;;;19.23;9.20;;;10.80;1.00;;;;;;4992852;28;20429;-83
2022/11/11 08:33:59;;;;;;;14.37;6.20;;;10.90;1.00;;;;;;5000074;28;20478;-82
2022/11/11 08:36:29;;;;;;;10.50;5.40;;;11.00;1.00;;;;;;4985286;28;20543;-84
2022/11/11 08:39:00;;;;;;;11.90;5.00;;;11.20;1.00;;;;;;4957247;28;20540;-83
2022/11/11 08:41:29;;;;;;;14.23;6.53;;;11.30;1.00;;;;;;4987302;28;20532;-83
2022/11/11 08:44:01;;;;;;;12.80;6.20;;;11.50;1.00;;;;;;4971420;28;20472;-84
2022/11/11 08:46:29;;;;;;;10.67;5.10;;;11.70;1.00;;;;;;4963680;28;20482;-85
2022/11/11 08:48:58;;;;;;;12.87;5.67;;;11.90;1.00;;;;;;4954575;28;20465;-84
2022/11/11 08:51:30;;;;;;;16.47;7.30;;;12.10;1.00;;;;;;4983548;28;20460;-83
2022/11/11 08:54:00;;;;;;;10.93;7.17;;;12.20;1.00;;;;;;4962197;28;20429;-83
2022/11/11 08:56:42;;;;;;;13.17;8.63;;;12.40;1.00;;;;;;4941858;28;20477;-83
2022/11/11 08:59:12;;;;;;;10.87;5.00;;;12.60;1.00;;;;;;4911443;28;20459;-83
2022/11/11 09:01:40;;;;;;;10.30;4.27;;;12.80;1.00;;;;;;4955996;28;20479;-82
2022/11/11 09:04:09;;;;;;;11.07;4.37;;;13.10;1.00;;;;;;4967432;28;20958;-83
2022/11/11 09:06:40;;;;;;;10.67;4.30;;;13.30;1.00;;;;;;4966515;28;20461;-81
2022/11/11 09:09:10;;;;;;;10.13;4.10;;;13.40;1.00;;;;;;4941726;28;20457;-82
2022/11/11 09:11:41;;;;;;;9.40;4.23;;;13.50;1.00;;;;;;4960332;28;20460;-83
2022/11/11 09:17:07;;;;;;;9.63;4.53;;;13.80;1.00;;;;;;4937888;28;20469;-83
2022/11/11 09:19:40;;;;;;;13.70;4.97;;;14.20;1.00;;;;;;4971871;28;21419;-83
2022/11/11 09:22:17;;;;;;;9.70;4.27;;;14.50;1.00;;;;;;4974971;28;20566;-83
2022/11/11 09:24:46;;;;;;;7.93;4.20;;;14.70;1.00;;;;;;4972205;28;20452;-81
2022/11/11 09:27:22;;;;;;;9.27;4.67;;;14.90;1.00;;;;;;4998212;28;20469;-80
2022/11/11 09:29:50;;;;;;;9.70;4.10;;;15.10;1.00;;;;;;4933165;28;20507;-82
2022/11/11 09:32:47;;;;;;;9.60;3.60;;;15.10;1.00;;;;;;4967285;28;21727;-86
2022/11/11 09:35:19;;;;;;;10.63;3.83;;;14.90;1.00;;;;;;4951376;28;20581;-88
2022/11/11 09:38:06;;;;;;;8.17;3.60;;;14.70;1.00;;;;;;4946985;28;20480;-87
2022/11/11 09:40:57;;;;;;;8.93;3.40;;;14.50;1.00;;;;;;4986824;28;20436;-86
2022/11/11 09:43:36;;;;;;;8.40;2.80;;;14.40;1.00;;;;;;4973381;28;20619;-87
2022/11/11 09:46:29;;;;;;;8.50;3.60;;;14.20;1.00;;;;;;5005358;28;20573;-89
2022/11/11 09:49:36;;;;;;;8.77;2.97;;;14.10;1.00;;;;;;5014436;28;20456;-84
2022/11/11 09:52:28;;;;;;;10.50;3.00;;;14.00;1.00;;;;;;4967932;28;20570;-85
2022/11/11 09:55:06;;;;;;;7.47;3.40;;;13.80;1.00;;;;;;4960121;28;20504;-88
2022/11/11 09:58:01;;;;;;;;;;;;;;;;;;;;;
2022/11/11 10:00:43;;;;;;;7.43;2.77;;;13.80;1.00;;;;;;4963004;28;50150;-83
2022/11/11 10:03:24;;;;;;;8.90;3.60;;;13.80;1.00;;;;;;4975508;28;20903;-84
2022/11/11 10:06:00;;;;;;;9.30;3.40;;;13.70;1.00;;;;;;4986309;28;20575;-84
2022/11/11 10:08:38;;;;;;;8.73;3.43;;;13.70;1.00;;;;;;4986946;28;20471;-82
2022/11/11 10:11:15;;;;;;;7.30;2.93;;;13.80;1.00;;;;;;4995329;28;20946;-81
2022/11/11 10:13:48;;;;;;;11.50;3.20;;;13.90;1.00;;;;;;4987923;28;20453;-84
2022/11/11 10:16:48;;;;;;;10.07;2.97;;;13.90;1.00;;;;;;4955967;28;20530;-84
2022/11/11 10:19:37;;;;;;;8.43;3.80;;;13.90;1.00;;;;;;4961878;28;20994;-81
2022/11/11 10:22:27;;;;;;;6.57;3.30;;;14.00;1.00;;;;;;4959077;28;20464;-85
2022/11/11 10:25:19;;;;;;;10.73;3.97;;;14.20;1.00;;;;;;4979986;28;21008;-83
2022/11/11 10:28:01;;;;;;;8.37;3.50;;;14.20;1.00;;;;;;4972034;28;20478;-85
2022/11/11 10:30:30;;;;;;;7.70;3.33;;;14.20;1.00;;;;;;4977046;28;20470;-80
2022/11/11 10:33:00;;;;;;;8.60;3.37;;;14.30;1.00;;;;;;4982361;28;20495;-82
2022/11/11 10:35:30;;;;;;;10.13;4.43;;;14.30;1.00;;;;;;4984075;28;20454;-83
2022/11/11 10:38:06;;;;;;;10.17;4.30;;;14.20;1.00;;;;;;4977395;28;20459;-81
2022/11/11 10:40:39;;;;;;;7.43;3.03;;;14.50;1.00;;;;;;4993836;28;20462;-81
2022/11/11 10:43:19;;;;;;;12.73;4.30;;;14.60;1.00;;;;;;4987189;28;20480;-83
2022/11/11 10:45:56;;;;;;;8.57;4.20;;;14.70;1.00;;;;;;4993940;28;20468;-83
2022/11/11 10:48:38;;;;;;;8.07;3.40;;;14.90;1.00;;;;;;4964284;28;20978;-83
2022/11/11 10:51:09;;;;;;;9.60;4.30;;;15.10;1.00;;;;;;4959529;28;21288;-84
2022/11/11 10:53:44;;;;;;;7.57;3.50;;;15.30;1.00;;;;;;4986447;28;20480;-82
2022/11/11 10:56:20;;;;;;;11.17;3.50;;;15.40;1.00;;;;;;4991075;28;21225;-83
2022/11/11 10:58:58;;;;;;;8.90;4.40;;;15.60;1.00;;;;;;4999769;28;20837;-82
2022/11/11 11:01:38;;;;;;;11.30;3.40;;;15.70;1.00;;;;;;4982770;28;20444;-82
2022/11/11 11:04:17;;;;;;;7.20;3.00;;;15.70;1.00;;;;;;4978484;28;20560;-85
2022/11/11 11:06:57;;;;;;;8.17;2.90;;;15.60;1.00;;;;;;4974726;28;20461;-81
2022/11/11 11:10:29;;;;;;;8.53;3.43;;;15.70;1.00;;;;;;4983085;28;20477;-80
2022/11/11 11:13:15;;;;;;;9.73;3.23;;;15.90;1.00;;;;;;4988385;28;20473;-81
2022/11/11 11:15:48;;;;;;;9.37;3.33;;;16.00;1.00;;;;;;4985889;28;21227;-82
2022/11/11 11:18:29;;;;;;;7.43;3.07;;;16.20;1.00;;;;;;4981201;28;20486;-82
2022/11/11 11:21:00;;;;;;;9.13;3.37;;;16.00;1.00;;;;;;4968102;28;20502;-82
2022/11/11 11:23:46;;;;;;;6.80;3.03;;;16.00;1.00;;;;;;4979477;28;20425;-83
2022/11/11 11:26:19;;;;;;;7.80;3.00;;;16.00;1.00;;;;;;4955780;28;20496;-82
2022/11/11 11:29:07;;;;;;;9.47;4.10;;;16.10;1.00;;;;;;4970004;28;20483;-84
2022/11/11 11:31:41;;;;;;;8.27;3.50;;;16.00;1.00;;;;;;4985613;28;20586;-83
2022/11/11 11:34:09;;;;;;;8.33;3.40;;;16.00;1.00;;;;;;4967728;28;20471;-83
2022/11/11 11:36:38;;;;;;;9.30;3.30;;;15.80;1.00;;;;;;4976238;28;20445;-85
2022/11/11 11:39:10;;;;;;;8.23;3.13;;;15.70;1.00;;;;;;4963077;28;20463;-82
2022/11/11 11:41:41;;;;;;;10.03;3.33;;;15.70;1.00;;;;;;4967969;28;20516;-84
2022/11/11 11:44:25;;;;;;;8.27;3.50;;;15.60;1.00;;;;;;4990438;28;20523;-84
2022/11/11 11:46:59;;;;;;;7.00;3.10;;;15.50;1.00;;;;;;4962990;28;21227;-82
2022/11/11 11:50:05;;;;;;;10.27;3.60;;;15.50;1.00;;;;;;4996586;28;20535;-85
2022/11/11 11:52:43;;;;;;;7.37;3.20;;;15.50;1.00;;;;;;4998915;28;20559;-83
2022/11/11 11:55:28;;;;;;;9.97;3.00;;;15.70;1.00;;;;;;4962059;28;20476;-82
2022/11/11 11:58:11;;;;;;;8.67;3.40;;;15.70;1.00;;;;;;5001332;28;20536;-83
2022/11/11 12:00:46;;;;;;;11.00;4.23;;;15.50;1.00;;;;;;4997703;28;20459;-83
2022/11/11 12:03:58;;;;;;;7.93;3.43;;;15.70;1.00;;;;;;4993631;28;20489;-84
2022/11/11 12:06:36;;;;;;;7.57;2.93;;;15.80;1.00;;;;;;4940987;28;20467;-83
2022/11/11 12:09:12;;;;;;;6.10;2.73;;;15.80;1.00;;;;;;4991108;28;20564;-85
2022/11/11 12:11:53;;;;;;;11.97;3.67;;;15.70;1.00;;;;;;4993716;28;20555;-85
2022/11/11 12:14:47;;;;;;;8.40;3.30;;;15.70;1.00;;;;;;4996597;28;20458;-83
2022/11/11 12:17:35;;;;;;;8.30;3.37;;;15.60;1.00;;;;;;4998692;28;22155;-86
2022/11/11 12:20:14;;;;;;;7.70;3.30;;;15.60;1.00;;;;;;4995691;28;20473;-83
2022/11/11 12:22:58;;;;;;;8.83;3.47;;;15.60;1.00;;;;;;4987566;28;21245;-84
2022/11/11 12:25:53;;;;;;;6.93;2.80;;;15.60;1.00;;;;;;4994287;28;20479;-82
2022/11/11 12:28:49;;;;;;;11.10;3.53;;;15.60;1.00;;;;;;4999491;28;20457;-88
2022/11/11 12:34:59;;;;;;;8.10;3.80;;;15.70;1.00;;;;;;4916066;28;20527;-88
2022/11/11 12:37:38;;;;;;;13.27;4.23;;;15.70;1.00;;;;;;4923696;28;20481;-82
2022/11/11 12:40:25;;;;;;;6.97;2.80;;;15.70;1.00;;;;;;4958946;28;20470;-83
2022/11/11 12:43:19;;;;;;;7.87;3.43;;;15.90;1.00;;;;;;4966455;28;20567;-84
2022/11/11 12:46:11;;;;;;;7.87;3.00;;;16.00;1.00;;;;;;4975660;28;20555;-84
2022/11/11 12:49:06;;;;;;;8.07;3.10;;;16.00;1.00;;;;;;4975564;28;20429;-83
2022/11/11 12:51:59;;;;;;;7.43;3.23;;;16.30;1.00;;;;;;4972007;28;20501;-83
2022/11/11 12:54:48;;;;;;;9.67;4.20;;;16.50;1.00;;;;;;4979665;28;20995;-84
2022/11/11 12:57:33;;;;;;;9.43;5.00;;;16.50;1.00;;;;;;4971597;28;20522;-84
2022/11/11 13:17:22;;;;;;;;;;;;;;;;;;;;;
2022/11/11 13:23:17;;;;;;;8.87;2.87;;;15.30;1.00;;;;;;6271310;22;20904;-87
2022/11/11 13:28:51;;;;;;;6.90;2.60;;;14.90;1.00;;;;;;6278901;22;20390;-84
2022/11/11 13:31:31;;;;;;;10.13;3.97;;;14.90;1.00;;;;;;6262791;22;20404;-82
2022/11/11 13:37:01;;;;;;;7.60;2.80;;;14.80;1.00;;;;;;6286135;22;20416;-84
2022/11/11 13:39:48;;;;;;;7.00;3.03;;;14.80;1.00;;;;;;6295841;22;20482;-82
2022/11/11 13:42:27;;;;;;;14.63;3.80;;;14.70;1.00;;;;;;6274500;22;20397;-84
2022/11/11 13:44:59;;;;;;;12.60;4.10;;;14.70;1.00;;;;;;6287700;22;20440;-84
2022/11/11 13:51:10;;;;;;;7.10;3.43;;;14.60;1.00;;;;;;6232087;22;20495;-86
2022/11/11 13:53:50;;;;;;;7.70;2.80;;;14.60;1.00;;;;;;6298183;22;20471;-84
2022/11/11 13:57:09;;;;;;;9.40;3.10;;;14.60;1.00;;;;;;6298687;22;20446;-83
2022/11/11 13:59:48;;;;;;;7.93;3.50;;;14.50;1.00;;;;;;6289394;22;20463;-83
2022/11/11 14:02:41;;;;;;;12.47;3.80;;;14.40;1.00;;;;;;6228579;22;20456;-84
2022/11/11 14:08:49;;;;;;;11.00;3.57;;;14.40;1.00;;;;;;6249898;22;21010;-84
2022/11/11 14:11:32;;;;;;;9.87;4.30;;;14.40;1.00;;;;;;6264422;22;20582;-83
2022/11/11 14:14:42;;;;;;;12.20;4.20;;;14.40;1.00;;;;;;6282655;22;21068;-85
2022/11/11 14:17:19;;;;;;;8.77;3.17;;;14.30;1.00;;;;;;6252372;22;21478;-84
2022/11/11 14:20:41;;;;;;;10.83;4.30;;;14.30;1.00;;;;;;6257800;22;20420;-86
2022/11/11 14:23:38;;;;;;;10.77;4.07;;;14.30;1.00;;;;;;6246537;22;20395;-82
2022/11/11 14:26:28;;;;;;;9.63;3.67;;;14.20;1.00;;;;;;6281564;22;20506;-83
2022/11/11 14:29:19;;;;;;;8.13;2.97;;;14.10;1.00;;;;;;6280355;22;20523;-84
2022/11/11 14:32:22;;;;;;;;;;;;;;;;;;;;;
2022/11/11 14:35:07;;;;;;;8.33;3.50;;;13.90;1.00;;;;;;6287426;22;49334;-86
2022/11/11 14:37:53;;;;;;;8.47;2.87;;;13.90;1.00;;;;;;6291127;22;20384;-82
2022/11/11 14:40:28;;;;;;;10.23;3.77;;;13.90;1.00;;;;;;6296569;22;20436;-80
2022/11/11 14:43:00;;;;;;;9.30;3.67;;;13.80;1.00;;;;;;6294419;22;20412;-83
2022/11/11 14:46:00;;;;;;;9.53;3.77;;;13.80;1.00;;;;;;6287600;22;20473;-82
2022/11/11 14:48:53;;;;;;;11.03;4.13;;;13.80;1.00;;;;;;6255693;22;20530;-82
2022/11/11 14:51:55;;;;;;;15.70;9.53;;;13.70;1.00;;;;;;6257280;22;20418;-82
2022/11/11 14:54:40;;;;;;;7.53;3.27;;;13.60;1.00;;;;;;6224132;23;20416;-80
2022/11/11 14:57:19;;;;;;;10.80;5.47;;;13.60;1.00;;;;;;6204039;22;20519;-84
2022/11/11 14:59:51;;;;;;;11.53;5.27;;;13.60;1.00;;;;;;6266868;22;20471;-84
2022/11/11 15:02:30;;;;;;;8.00;3.63;;;13.50;1.00;;;;;;6285522;22;20437;-81
2022/11/11 15:04:59;;;;;;;8.73;3.70;;;13.50;1.00;;;;;;6281704;22;20441;-83
2022/11/11 15:07:41;;;;;;;11.00;4.80;;;13.40;1.00;;;;;;6283432;22;21425;-82
2022/11/11 15:10:29;;;;;;;10.40;4.20;;;13.40;1.00;;;;;;6283754;22;20415;-82
2022/11/11 15:13:44;;;;;;;10.27;4.80;;;13.40;1.00;;;;;;6285475;22;20852;-82
2022/11/11 15:16:23;;;;;;;9.30;3.60;;;13.30;1.00;;;;;;6224996;22;20402;-82
2022/11/11 15:19:13;;;;;;;9.20;3.97;;;13.30;1.00;;;;;;6259178;22;20386;-80
2022/11/11 15:21:50;;;;;;;8.57;3.80;;;13.20;1.00;;;;;;6270023;22;20422;-81
2022/11/11 15:24:31;;;;;;;8.53;4.07;;;13.10;1.00;;;;;;6255832;22;20523;-79
2022/11/11 15:27:06;;;;;;;10.83;3.30;;;13.00;1.00;;;;;;6255388;22;20414;-80
2022/11/11 15:29:51;;;;;;;8.00;3.70;;;12.90;1.00;;;;;;6254210;22;20999;-80
2022/11/11 15:32:28;;;;;;;8.20;3.40;;;12.90;1.00;;;;;;6254159;22;20454;-80
2022/11/11 15:35:07;;;;;;;8.70;3.20;;;12.80;1.00;;;;;;6251753;22;20488;-80
2022/11/11 15:37:36;;;;;;;7.87;3.60;;;12.80;1.00;;;;;;6255103;22;20498;-81
2022/11/11 15:40:06;;;;;;;7.30;3.43;;;12.70;1.00;;;;;;6288954;22;20453;-82
2022/11/11 15:42:36;;;;;;;11.13;4.00;;;12.70;1.00;;;;;;6258273;22;20422;-81
2022/11/11 15:45:13;;;;;;;9.10;3.40;;;12.60;1.00;;;;;;6255633;22;21612;-79
2022/11/11 15:47:41;;;;;;;8.00;3.17;;;12.60;1.00;;;;;;6245205;22;20425;-80
2022/11/11 15:50:17;;;;;;;8.73;3.30;;;12.50;1.00;;;;;;6283946;22;20832;-80
2022/11/11 15:52:46;;;;;;;8.93;3.43;;;12.50;1.00;;;;;;6292469;22;20420;-81
2022/11/11 15:55:24;;;;;;;10.03;4.10;;;12.40;1.00;;;;;;6259310;22;20412;-80
2022/11/11 15:57:51;;;;;;;9.50;3.80;;;12.40;1.00;;;;;;6256751;22;20433;-80
2022/11/11 16:00:28;;;;;;;11.03;4.27;;;12.40;1.00;;;;;;6256099;22;20471;-82
2022/11/11 16:03:02;;;;;;;10.63;4.30;;;12.40;1.00;;;;;;6252698;22;20426;-81